sensor_id;sensor_type;location;lat;lon;timestamp;P1;durP1;ratioP1;P2;durP2;ratioP2
54458;SDS011;40368;49.350;8.152;2023-03-15T00:00:29;11;;;32;;
54458;SDS011;40368;49.350;8.152;2023-03-15T00:01:29;9;;;15;;
54458;SDS011;40368;49.350;8.152;2023-03-15T00:02:29;9;;;29;;
54458;SDS011;40368;49.350;8.152;2023-03-15T00:03:29;8;;;13;;
54458;SDS011;40368;49.350;8.152;2023-03-15T00:04:29;8;;;21;;
54458;SDS011;40368;49.350;8.152;2023-03-15T00:05:29;11;;;22;;
54458;SDS011;40368;49.350;8.152;2023-03-15T00:06:29;20;;;29;;
54458;SDS011;40368;49.350;8.152;2023-03-15T00:07:29;10;;;27;;
54458;SDS011;40368;49.350;8.152;2023-03-15T00:08:29;10;;;24;;
54458;SDS011;40368;49.350;8.152;2023-03-15T00:09:29;10;;;25;;
54458;SDS011;40368;49.350;8.152;2023-03-15T00:10:29;13;;;31;;
54458;SDS011;40368;49.350;8.152;2023-03-15T00:11:29;10;;;22;;
54458;SDS011;40368;49.350;8.152;2023-03-15T00:12:29;11;;;20;;
54458;SDS011;40368;49.350;8.152;2023-03-15T00:13:29;10;;;26;;
54458;SDS011;40368;49.350;8.152;2023-03-15T00:14:29;11;;;36;;
54458;SDS011;40368;49.350;8.152;2023-03-15T00:15:29;9;;;30;;
54458;SDS011;40368;49.350;8.152;2023-03-15T00:16:29;11;;;27;;
54458;SDS011;40368;49.350;8.152;2023-03-15T00:17:30;10;;;21;;
54458;SDS011;40368;49.350;8.152;2023-03-15T00:18:29;10;;;41;;
54458;SDS011;40368;49.350;8.152;2023-03-15T00:19:29;10;;;31;;
54458;SDS011;40368;49.350;8.152;2023-03-15T00:20:29;8;;;19;;
54458;SDS011;40368;49.350;8.152;2023-03-15T00:21:29;8;;;20;;
54458;SDS011;40368;49.350;8.152;2023-03-15T00:22:29;11;;;24;;
54458;SDS011;40368;49.350;8.152;2023-03-15T00:23:29;11;;;43;;
54458;SDS011;40368;49.350;8.152;2023-03-15T00:24:29;10;;;32;;
54458;SDS011;40368;49.350;8.152;2023-03-15T00:25:29;10;;;28;;
54458;SDS011;40368;49.350;8.152;2023-03-15T00:27:29;10;;;13;;
54458;SDS011;40368;49.350;8.152;2023-03-15T00:28:29;9;;;18;;
54458;SDS011;40368;49.350;8.152;2023-03-15T00:29:29;10;;;19;;
54458;SDS011;40368;49.350;8.152;2023-03-15T00:30:29;8;;;23;;
54458;SDS011;40368;49.350;8.152;2023-03-15T00:31:29;10;;;49;;
54458;SDS011;40368;49.350;8.152;2023-03-15T00:32:29;14;;;65;;
54458;SDS011;40368;49.350;8.152;2023-03-15T00:33:29;11;;;28;;
54458;SDS011;40368;49.350;8.152;2023-03-15T00:34:30;11;;;28;;
54458;SDS011;40368;49.350;8.152;2023-03-15T00:35:29;10;;;23;;
54458;SDS011;40368;49.350;8.152;2023-03-15T00:36:29;12;;;32;;
54458;SDS011;40368;49.350;8.152;2023-03-15T00:37:29;9;;;10;;
54458;SDS011;40368;49.350;8.152;2023-03-15T00:38:29;10;;;15;;
54458;SDS011;40368;49.350;8.152;2023-03-15T00:39:29;10;;;22;;
54458;SDS011;40368;49.350;8.152;2023-03-15T00:40:29;10;;;23;;
54458;SDS011;40368;49.350;8.152;2023-03-15T00:41:29;8;;;20;;
54458;SDS011;40368;49.350;8.152;2023-03-15T00:42:29;11;;;30;;
54458;SDS011;40368;49.350;8.152;2023-03-15T00:43:29;9;;;18;;
54458;SDS011;40368;49.350;8.152;2023-03-15T00:44:29;10;;;40;;
54458;SDS011;40368;49.350;8.152;2023-03-15T00:45:29;15;;;30;;
54458;SDS011;40368;49.350;8.152;2023-03-15T00:46:29;12;;;41;;
54458;SDS011;40368;49.350;8.152;2023-03-15T00:47:29;11;;;22;;
54458;SDS011;40368;49.350;8.152;2023-03-15T00:48:29;9;;;13;;
54458;SDS011;40368;49.350;8.152;2023-03-15T00:49:31;9;;;38;;
54458;SDS011;40368;49.350;8.152;2023-03-15T00:50:29;9;;;39;;
54458;SDS011;40368;49.350;8.152;2023-03-15T00:51:29;11;;;35;;
54458;SDS011;40368;49.350;8.152;2023-03-15T00:52:32;10;;;54;;
54458;SDS011;40368;49.350;8.152;2023-03-15T00:53:29;10;;;40;;
54458;SDS011;40368;49.350;8.152;2023-03-15T00:54:29;9;;;20;;
54458;SDS011;40368;49.350;8.152;2023-03-15T00:55:29;9;;;32;;
54458;SDS011;40368;49.350;8.152;2023-03-15T00:56:29;10;;;24;;
54458;SDS011;40368;49.350;8.152;2023-03-15T00:57:31;12;;;40;;
54458;SDS011;40368;49.350;8.152;2023-03-15T00:58:29;12;;;52;;
54458;SDS011;40368;49.350;8.152;2023-03-15T00:59:30;9;;;11;;
54458;SDS011;40368;49.350;8.152;2023-03-15T01:00:29;11;;;35;;
54458;SDS011;40368;49.350;8.152;2023-03-15T01:01:29;11;;;16;;
54458;SDS011;40368;49.350;8.152;2023-03-15T01:02:29;10;;;14;;
54458;SDS011;40368;49.350;8.152;2023-03-15T01:03:29;10;;;23;;
54458;SDS011;40368;49.350;8.152;2023-03-15T01:04:30;10;;;38;;
54458;SDS011;40368;49.350;8.152;2023-03-15T01:05:29;10;;;20;;
54458;SDS011;40368;49.350;8.152;2023-03-15T01:06:29;12;;;26;;
54458;SDS011;40368;49.350;8.152;2023-03-15T01:07:29;12;;;26;;
54458;SDS011;40368;49.350;8.152;2023-03-15T01:08:29;15;;;48;;
54458;SDS011;40368;49.350;8.152;2023-03-15T01:09:29;13;;;26;;
54458;SDS011;40368;49.350;8.152;2023-03-15T01:10:29;13;;;23;;
54458;SDS011;40368;49.350;8.152;2023-03-15T01:11:29;15;;;34;;
54458;SDS011;40368;49.350;8.152;2023-03-15T01:12:29;16;;;56;;
54458;SDS011;40368;49.350;8.152;2023-03-15T01:13:29;16;;;33;;
54458;SDS011;40368;49.350;8.152;2023-03-15T01:14:29;17;;;31;;
54458;SDS011;40368;49.350;8.152;2023-03-15T01:15:29;20;;;45;;
54458;SDS011;40368;49.350;8.152;2023-03-15T01:16:29;20;;;58;;
54458;SDS011;40368;49.350;8.152;2023-03-15T01:17:29;17;;;49;;
54458;SDS011;40368;49.350;8.152;2023-03-15T01:18:29;21;;;36;;
54458;SDS011;40368;49.350;8.152;2023-03-15T01:19:29;20;;;40;;
54458;SDS011;40368;49.350;8.152;2023-03-15T01:20:29;18;;;40;;
54458;SDS011;40368;49.350;8.152;2023-03-15T01:21:29;18;;;40;;
54458;SDS011;40368;49.350;8.152;2023-03-15T01:25:29;15;;;28;;
54458;SDS011;40368;49.350;8.152;2023-03-15T01:26:29;14;;;35;;
54458;SDS011;40368;49.350;8.152;2023-03-15T01:27:29;13;;;42;;
54458;SDS011;40368;49.350;8.152;2023-03-15T01:28:29;13;;;28;;
54458;SDS011;40368;49.350;8.152;2023-03-15T01:29:29;11;;;29;;
54458;SDS011;40368;49.350;8.152;2023-03-15T01:30:29;13;;;51;;
54458;SDS011;40368;49.350;8.152;2023-03-15T01:31:29;11;;;27;;
54458;SDS011;40368;49.350;8.152;2023-03-15T01:32:29;14;;;38;;
54458;SDS011;40368;49.350;8.152;2023-03-15T01:33:29;11;;;32;;
54458;SDS011;40368;49.350;8.152;2023-03-15T01:34:29;11;;;37;;
54458;SDS011;40368;49.350;8.152;2023-03-15T01:35:29;11;;;19;;
54458;SDS011;40368;49.350;8.152;2023-03-15T01:36:29;10;;;16;;
54458;SDS011;40368;49.350;8.152;2023-03-15T01:37:29;12;;;18;;
54458;SDS011;40368;49.350;8.152;2023-03-15T01:38:29;12;;;32;;
54458;SDS011;40368;49.350;8.152;2023-03-15T01:39:29;13;;;49;;
54458;SDS011;40368;49.350;8.152;2023-03-15T01:40:29;13;;;26;;
54458;SDS011;40368;49.350;8.152;2023-03-15T01:41:29;13;;;38;;
54458;SDS011;40368;49.350;8.152;2023-03-15T01:42:29;11;;;42;;
54458;SDS011;40368;49.350;8.152;2023-03-15T01:43:29;13;;;34;;
54458;SDS011;40368;49.350;8.152;2023-03-15T01:44:46;13;;;49;;
54458;SDS011;40368;49.350;8.152;2023-03-15T01:46:03;12;;;28;;
54458;SDS011;40368;49.350;8.152;2023-03-15T01:46:30;11;;;32;;
54458;SDS011;40368;49.350;8.152;2023-03-15T01:47:29;12;;;24;;
54458;SDS011;40368;49.350;8.152;2023-03-15T01:48:31;11;;;21;;
54458;SDS011;40368;49.350;8.152;2023-03-15T01:49:29;13;;;39;;
54458;SDS011;40368;49.350;8.152;2023-03-15T01:50:29;12;;;43;;
54458;SDS011;40368;49.350;8.152;2023-03-15T01:51:31;12;;;27;;
54458;SDS011;40368;49.350;8.152;2023-03-15T01:52:30;14;;;29;;
54458;SDS011;40368;49.350;8.152;2023-03-15T01:53:29;12;;;34;;
54458;SDS011;40368;49.350;8.152;2023-03-15T01:54:29;12;;;34;;
54458;SDS011;40368;49.350;8.152;2023-03-15T01:55:29;14;;;25;;
54458;SDS011;40368;49.350;8.152;2023-03-15T01:56:29;12;;;38;;
54458;SDS011;40368;49.350;8.152;2023-03-15T01:57:30;14;;;54;;
54458;SDS011;40368;49.350;8.152;2023-03-15T01:58:29;11;;;27;;
54458;SDS011;40368;49.350;8.152;2023-03-15T01:59:29;11;;;31;;
54458;SDS011;40368;49.350;8.152;2023-03-15T02:00:29;12;;;21;;
54458;SDS011;40368;49.350;8.152;2023-03-15T02:01:29;13;;;34;;
54458;SDS011;40368;49.350;8.152;2023-03-15T02:02:29;11;;;24;;
54458;SDS011;40368;49.350;8.152;2023-03-15T02:03:29;12;;;21;;
54458;SDS011;40368;49.350;8.152;2023-03-15T02:04:30;16;;;40;;
54458;SDS011;40368;49.350;8.152;2023-03-15T02:05:30;13;;;50;;
54458;SDS011;40368;49.350;8.152;2023-03-15T02:06:29;12;;;40;;
54458;SDS011;40368;49.350;8.152;2023-03-15T02:07:29;12;;;23;;
54458;SDS011;40368;49.350;8.152;2023-03-15T02:08:30;14;;;52;;
54458;SDS011;40368;49.350;8.152;2023-03-15T02:09:31;13;;;36;;
54458;SDS011;40368;49.350;8.152;2023-03-15T02:10:30;12;;;27;;
54458;SDS011;40368;49.350;8.152;2023-03-15T02:11:29;16;;;46;;
54458;SDS011;40368;49.350;8.152;2023-03-15T02:12:29;11;;;32;;
54458;SDS011;40368;49.350;8.152;2023-03-15T02:13:29;13;;;16;;
54458;SDS011;40368;49.350;8.152;2023-03-15T02:14:29;14;;;44;;
54458;SDS011;40368;49.350;8.152;2023-03-15T02:15:29;11;;;28;;
54458;SDS011;40368;49.350;8.152;2023-03-15T02:16:29;13;;;45;;
54458;SDS011;40368;49.350;8.152;2023-03-15T02:17:32;15;;;47;;
54458;SDS011;40368;49.350;8.152;2023-03-15T02:18:29;13;;;28;;
54458;SDS011;40368;49.350;8.152;2023-03-15T02:19:33;12;;;23;;
54458;SDS011;40368;49.350;8.152;2023-03-15T02:20:30;13;;;52;;
54458;SDS011;40368;49.350;8.152;2023-03-15T02:21:32;19;;;53;;
54458;SDS011;40368;49.350;8.152;2023-03-15T02:22:30;15;;;21;;
54458;SDS011;40368;49.350;8.152;2023-03-15T02:23:29;14;;;48;;
54458;SDS011;40368;49.350;8.152;2023-03-15T02:24:31;16;;;50;;
54458;SDS011;40368;49.350;8.152;2023-03-15T02:25:32;13;;;55;;
54458;SDS011;40368;49.350;8.152;2023-03-15T02:26:31;13;;;27;;
54458;SDS011;40368;49.350;8.152;2023-03-15T02:27:29;13;;;31;;
54458;SDS011;40368;49.350;8.152;2023-03-15T02:28:29;14;;;19;;
54458;SDS011;40368;49.350;8.152;2023-03-15T02:29:29;13;;;26;;
54458;SDS011;40368;49.350;8.152;2023-03-15T02:30:29;14;;;31;;
54458;SDS011;40368;49.350;8.152;2023-03-15T02:31:29;15;;;34;;
54458;SDS011;40368;49.350;8.152;2023-03-15T02:32:29;17;;;42;;
54458;SDS011;40368;49.350;8.152;2023-03-15T02:33:29;14;;;29;;
54458;SDS011;40368;49.350;8.152;2023-03-15T02:34:29;14;;;26;;
54458;SDS011;40368;49.350;8.152;2023-03-15T02:35:30;17;;;56;;
54458;SDS011;40368;49.350;8.152;2023-03-15T02:36:29;14;;;29;;
54458;SDS011;40368;49.350;8.152;2023-03-15T02:37:29;17;;;47;;
54458;SDS011;40368;49.350;8.152;2023-03-15T02:38:29;13;;;47;;
54458;SDS011;40368;49.350;8.152;2023-03-15T02:39:29;13;;;39;;
54458;SDS011;40368;49.350;8.152;2023-03-15T02:40:29;12;;;33;;
54458;SDS011;40368;49.350;8.152;2023-03-15T02:41:29;13;;;36;;
54458;SDS011;40368;49.350;8.152;2023-03-15T02:42:29;26;;;55;;
54458;SDS011;40368;49.350;8.152;2023-03-15T02:43:29;14;;;39;;
54458;SDS011;40368;49.350;8.152;2023-03-15T02:44:29;15;;;64;;
54458;SDS011;40368;49.350;8.152;2023-03-15T02:45:29;18;;;89;;
54458;SDS011;40368;49.350;8.152;2023-03-15T02:46:29;16;;;49;;
54458;SDS011;40368;49.350;8.152;2023-03-15T02:47:30;17;;;39;;
54458;SDS011;40368;49.350;8.152;2023-03-15T02:48:29;16;;;61;;
54458;SDS011;40368;49.350;8.152;2023-03-15T02:49:30;16;;;25;;
54458;SDS011;40368;49.350;8.152;2023-03-15T02:50:29;18;;;43;;
54458;SDS011;40368;49.350;8.152;2023-03-15T02:51:29;17;;;65;;
54458;SDS011;40368;49.350;8.152;2023-03-15T02:52:29;15;;;31;;
54458;SDS011;40368;49.350;8.152;2023-03-15T02:53:29;15;;;59;;
54458;SDS011;40368;49.350;8.152;2023-03-15T02:54:29;18;;;46;;
54458;SDS011;40368;49.350;8.152;2023-03-15T02:55:29;15;;;44;;
54458;SDS011;40368;49.350;8.152;2023-03-15T02:56:29;16;;;33;;
54458;SDS011;40368;49.350;8.152;2023-03-15T02:57:29;12;;;15;;
54458;SDS011;40368;49.350;8.152;2023-03-15T02:58:29;16;;;45;;
54458;SDS011;40368;49.350;8.152;2023-03-15T02:59:29;20;;;31;;
54458;SDS011;40368;49.350;8.152;2023-03-15T03:00:29;17;;;45;;
54458;SDS011;40368;49.350;8.152;2023-03-15T03:01:29;19;;;47;;
54458;SDS011;40368;49.350;8.152;2023-03-15T03:02:29;14;;;30;;
54458;SDS011;40368;49.350;8.152;2023-03-15T03:03:29;14;;;40;;
54458;SDS011;40368;49.350;8.152;2023-03-15T03:04:29;15;;;60;;
54458;SDS011;40368;49.350;8.152;2023-03-15T03:05:29;16;;;58;;
54458;SDS011;40368;49.350;8.152;2023-03-15T03:06:29;14;;;99;;
54458;SDS011;40368;49.350;8.152;2023-03-15T03:07:30;17;;;44;;
54458;SDS011;40368;49.350;8.152;2023-03-15T03:08:29;17;;;57;;
54458;SDS011;40368;49.350;8.152;2023-03-15T03:09:29;16;;;46;;
54458;SDS011;40368;49.350;8.152;2023-03-15T03:10:29;19;;;85;;
54458;SDS011;40368;49.350;8.152;2023-03-15T03:11:29;17;;;45;;
54458;SDS011;40368;49.350;8.152;2023-03-15T03:13:29;15;;;46;;
54458;SDS011;40368;49.350;8.152;2023-03-15T03:14:29;18;;;55;;
54458;SDS011;40368;49.350;8.152;2023-03-15T03:15:29;16;;;35;;
54458;SDS011;40368;49.350;8.152;2023-03-15T03:16:29;18;;;78;;
54458;SDS011;40368;49.350;8.152;2023-03-15T03:17:29;17;;;82;;
54458;SDS011;40368;49.350;8.152;2023-03-15T03:18:29;17;;;67;;
54458;SDS011;40368;49.350;8.152;2023-03-15T03:19:29;16;;;53;;
54458;SDS011;40368;49.350;8.152;2023-03-15T03:20:29;17;;;66;;
54458;SDS011;40368;49.350;8.152;2023-03-15T03:21:29;17;;;33;;
54458;SDS011;40368;49.350;8.152;2023-03-15T03:22:29;14;;;29;;
54458;SDS011;40368;49.350;8.152;2023-03-15T03:23:30;17;;;46;;
54458;SDS011;40368;49.350;8.152;2023-03-15T03:24:29;16;;;45;;
54458;SDS011;40368;49.350;8.152;2023-03-15T03:25:29;16;;;43;;
54458;SDS011;40368;49.350;8.152;2023-03-15T03:26:29;15;;;59;;
54458;SDS011;40368;49.350;8.152;2023-03-15T03:27:29;14;;;40;;
54458;SDS011;40368;49.350;8.152;2023-03-15T03:28:29;14;;;48;;
54458;SDS011;40368;49.350;8.152;2023-03-15T03:29:29;14;;;59;;
54458;SDS011;40368;49.350;8.152;2023-03-15T03:30:29;16;;;33;;
54458;SDS011;40368;49.350;8.152;2023-03-15T03:31:29;15;;;65;;
54458;SDS011;40368;49.350;8.152;2023-03-15T03:32:29;17;;;62;;
54458;SDS011;40368;49.350;8.152;2023-03-15T03:33:29;17;;;47;;
54458;SDS011;40368;49.350;8.152;2023-03-15T03:34:29;19;;;42;;
54458;SDS011;40368;49.350;8.152;2023-03-15T03:35:30;16;;;38;;
54458;SDS011;40368;49.350;8.152;2023-03-15T03:36:29;16;;;55;;
54458;SDS011;40368;49.350;8.152;2023-03-15T03:37:29;17;;;33;;
54458;SDS011;40368;49.350;8.152;2023-03-15T03:38:29;18;;;49;;
54458;SDS011;40368;49.350;8.152;2023-03-15T03:39:29;18;;;41;;
54458;SDS011;40368;49.350;8.152;2023-03-15T03:40:29;18;;;47;;
54458;SDS011;40368;49.350;8.152;2023-03-15T03:41:29;21;;;100;;
54458;SDS011;40368;49.350;8.152;2023-03-15T03:42:29;17;;;36;;
54458;SDS011;40368;49.350;8.152;2023-03-15T03:43:29;19;;;53;;
54458;SDS011;40368;49.350;8.152;2023-03-15T03:44:29;15;;;44;;
54458;SDS011;40368;49.350;8.152;2023-03-15T03:45:29;22;;;58;;
54458;SDS011;40368;49.350;8.152;2023-03-15T03:46:29;19;;;37;;
54458;SDS011;40368;49.350;8.152;2023-03-15T03:47:29;18;;;39;;
54458;SDS011;40368;49.350;8.152;2023-03-15T03:48:29;23;;;80;;
54458;SDS011;40368;49.350;8.152;2023-03-15T03:49:29;21;;;66;;
54458;SDS011;40368;49.350;8.152;2023-03-15T03:50:29;16;;;44;;
54458;SDS011;40368;49.350;8.152;2023-03-15T03:51:29;22;;;53;;
54458;SDS011;40368;49.350;8.152;2023-03-15T03:52:29;27;;;76;;
54458;SDS011;40368;49.350;8.152;2023-03-15T03:53:29;22;;;103;;
54458;SDS011;40368;49.350;8.152;2023-03-15T03:54:29;18;;;34;;
54458;SDS011;40368;49.350;8.152;2023-03-15T03:55:29;20;;;47;;
54458;SDS011;40368;49.350;8.152;2023-03-15T03:56:29;20;;;33;;
54458;SDS011;40368;49.350;8.152;2023-03-15T03:57:29;20;;;48;;
54458;SDS011;40368;49.350;8.152;2023-03-15T03:58:29;28;;;70;;
54458;SDS011;40368;49.350;8.152;2023-03-15T03:59:29;22;;;38;;
54458;SDS011;40368;49.350;8.152;2023-03-15T04:00:29;23;;;31;;
54458;SDS011;40368;49.350;8.152;2023-03-15T04:01:29;25;;;51;;
54458;SDS011;40368;49.350;8.152;2023-03-15T04:02:29;20;;;48;;
54458;SDS011;40368;49.350;8.152;2023-03-15T04:03:29;27;;;53;;
54458;SDS011;40368;49.350;8.152;2023-03-15T04:04:29;24;;;46;;
54458;SDS011;40368;49.350;8.152;2023-03-15T04:05:29;24;;;67;;
54458;SDS011;40368;49.350;8.152;2023-03-15T04:06:29;23;;;52;;
54458;SDS011;40368;49.350;8.152;2023-03-15T04:07:29;30;;;92;;
54458;SDS011;40368;49.350;8.152;2023-03-15T04:08:29;22;;;58;;
54458;SDS011;40368;49.350;8.152;2023-03-15T04:09:30;24;;;54;;
54458;SDS011;40368;49.350;8.152;2023-03-15T04:10:29;26;;;59;;
54458;SDS011;40368;49.350;8.152;2023-03-15T04:11:29;28;;;81;;
54458;SDS011;40368;49.350;8.152;2023-03-15T04:12:29;24;;;65;;
54458;SDS011;40368;49.350;8.152;2023-03-15T04:13:29;32;;;93;;
54458;SDS011;40368;49.350;8.152;2023-03-15T04:14:29;23;;;39;;
54458;SDS011;40368;49.350;8.152;2023-03-15T04:15:29;27;;;64;;
54458;SDS011;40368;49.350;8.152;2023-03-15T04:16:29;26;;;50;;
54458;SDS011;40368;49.350;8.152;2023-03-15T04:17:29;24;;;57;;
54458;SDS011;40368;49.350;8.152;2023-03-15T04:18:29;22;;;60;;
54458;SDS011;40368;49.350;8.152;2023-03-15T04:19:29;25;;;42;;
54458;SDS011;40368;49.350;8.152;2023-03-15T04:20:29;27;;;62;;
54458;SDS011;40368;49.350;8.152;2023-03-15T04:21:29;24;;;58;;
54458;SDS011;40368;49.350;8.152;2023-03-15T04:22:29;23;;;52;;
54458;SDS011;40368;49.350;8.152;2023-03-15T04:23:29;23;;;57;;
54458;SDS011;40368;49.350;8.152;2023-03-15T04:24:29;28;;;78;;
54458;SDS011;40368;49.350;8.152;2023-03-15T04:25:29;25;;;44;;
54458;SDS011;40368;49.350;8.152;2023-03-15T04:26:29;26;;;66;;
54458;SDS011;40368;49.350;8.152;2023-03-15T04:27:29;29;;;88;;
54458;SDS011;40368;49.350;8.152;2023-03-15T04:28:29;28;;;87;;
54458;SDS011;40368;49.350;8.152;2023-03-15T04:29:30;24;;;55;;
54458;SDS011;40368;49.350;8.152;2023-03-15T04:30:29;24;;;53;;
54458;SDS011;40368;49.350;8.152;2023-03-15T04:31:29;29;;;64;;
54458;SDS011;40368;49.350;8.152;2023-03-15T04:32:29;26;;;54;;
54458;SDS011;40368;49.350;8.152;2023-03-15T04:33:29;26;;;50;;
54458;SDS011;40368;49.350;8.152;2023-03-15T04:34:29;27;;;56;;
54458;SDS011;40368;49.350;8.152;2023-03-15T04:35:30;25;;;86;;
54458;SDS011;40368;49.350;8.152;2023-03-15T04:36:29;25;;;55;;
54458;SDS011;40368;49.350;8.152;2023-03-15T04:37:29;24;;;48;;
54458;SDS011;40368;49.350;8.152;2023-03-15T04:38:29;29;;;72;;
54458;SDS011;40368;49.350;8.152;2023-03-15T04:39:29;29;;;100;;
54458;SDS011;40368;49.350;8.152;2023-03-15T04:40:29;26;;;62;;
54458;SDS011;40368;49.350;8.152;2023-03-15T04:41:29;25;;;45;;
54458;SDS011;40368;49.350;8.152;2023-03-15T04:42:29;30;;;63;;
54458;SDS011;40368;49.350;8.152;2023-03-15T04:43:29;25;;;51;;
54458;SDS011;40368;49.350;8.152;2023-03-15T04:44:29;29;;;65;;
54458;SDS011;40368;49.350;8.152;2023-03-15T04:45:29;28;;;57;;
54458;SDS011;40368;49.350;8.152;2023-03-15T04:46:29;25;;;70;;
54458;SDS011;40368;49.350;8.152;2023-03-15T04:47:29;26;;;72;;
54458;SDS011;40368;49.350;8.152;2023-03-15T04:48:29;23;;;67;;
54458;SDS011;40368;49.350;8.152;2023-03-15T04:49:29;30;;;99;;
54458;SDS011;40368;49.350;8.152;2023-03-15T04:50:29;33;;;82;;
54458;SDS011;40368;49.350;8.152;2023-03-15T04:51:29;26;;;87;;
54458;SDS011;40368;49.350;8.152;2023-03-15T04:52:29;31;;;82;;
54458;SDS011;40368;49.350;8.152;2023-03-15T04:53:29;26;;;71;;
54458;SDS011;40368;49.350;8.152;2023-03-15T04:54:29;27;;;75;;
54458;SDS011;40368;49.350;8.152;2023-03-15T04:55:29;25;;;75;;
54458;SDS011;40368;49.350;8.152;2023-03-15T04:56:29;26;;;68;;
54458;SDS011;40368;49.350;8.152;2023-03-15T04:57:29;27;;;57;;
54458;SDS011;40368;49.350;8.152;2023-03-15T04:58:29;26;;;85;;
54458;SDS011;40368;49.350;8.152;2023-03-15T04:59:29;23;;;56;;
54458;SDS011;40368;49.350;8.152;2023-03-15T05:00:29;27;;;47;;
54458;SDS011;40368;49.350;8.152;2023-03-15T05:01:30;28;;;85;;
54458;SDS011;40368;49.350;8.152;2023-03-15T05:02:29;28;;;76;;
54458;SDS011;40368;49.350;8.152;2023-03-15T05:03:29;27;;;94;;
54458;SDS011;40368;49.350;8.152;2023-03-15T05:04:29;29;;;87;;
54458;SDS011;40368;49.350;8.152;2023-03-15T05:05:31;34;;;61;;
54458;SDS011;40368;49.350;8.152;2023-03-15T05:06:29;28;;;60;;
54458;SDS011;40368;49.350;8.152;2023-03-15T05:07:29;29;;;61;;
54458;SDS011;40368;49.350;8.152;2023-03-15T05:08:29;29;;;63;;
54458;SDS011;40368;49.350;8.152;2023-03-15T05:09:29;28;;;59;;
54458;SDS011;40368;49.350;8.152;2023-03-15T05:10:30;33;;;69;;
54458;SDS011;40368;49.350;8.152;2023-03-15T05:11:29;28;;;71;;
54458;SDS011;40368;49.350;8.152;2023-03-15T05:12:29;29;;;76;;
54458;SDS011;40368;49.350;8.152;2023-03-15T05:13:29;36;;;96;;
54458;SDS011;40368;49.350;8.152;2023-03-15T05:14:29;30;;;51;;
54458;SDS011;40368;49.350;8.152;2023-03-15T05:15:30;28;;;58;;
54458;SDS011;40368;49.350;8.152;2023-03-15T05:16:30;27;;;97;;
54458;SDS011;40368;49.350;8.152;2023-03-15T05:17:29;32;;;78;;
54458;SDS011;40368;49.350;8.152;2023-03-15T05:18:29;28;;;74;;
54458;SDS011;40368;49.350;8.152;2023-03-15T05:19:30;34;;;74;;
54458;SDS011;40368;49.350;8.152;2023-03-15T05:20:29;29;;;65;;
54458;SDS011;40368;49.350;8.152;2023-03-15T05:21:29;32;;;81;;
54458;SDS011;40368;49.350;8.152;2023-03-15T05:22:29;29;;;53;;
54458;SDS011;40368;49.350;8.152;2023-03-15T05:23:29;29;;;58;;
54458;SDS011;40368;49.350;8.152;2023-03-15T05:24:29;29;;;75;;
54458;SDS011;40368;49.350;8.152;2023-03-15T05:25:29;34;;;105;;
54458;SDS011;40368;49.350;8.152;2023-03-15T05:26:29;29;;;51;;
54458;SDS011;40368;49.350;8.152;2023-03-15T05:27:29;31;;;80;;
54458;SDS011;40368;49.350;8.152;2023-03-15T05:28:30;29;;;61;;
54458;SDS011;40368;49.350;8.152;2023-03-15T05:29:29;30;;;76;;
54458;SDS011;40368;49.350;8.152;2023-03-15T05:30:29;33;;;104;;
54458;SDS011;40368;49.350;8.152;2023-03-15T05:31:29;28;;;64;;
54458;SDS011;40368;49.350;8.152;2023-03-15T05:32:29;33;;;72;;
54458;SDS011;40368;49.350;8.152;2023-03-15T05:33:29;28;;;51;;
54458;SDS011;40368;49.350;8.152;2023-03-15T05:34:29;36;;;65;;
54458;SDS011;40368;49.350;8.152;2023-03-15T05:35:29;30;;;50;;
54458;SDS011;40368;49.350;8.152;2023-03-15T05:36:29;31;;;59;;
54458;SDS011;40368;49.350;8.152;2023-03-15T05:37:29;29;;;63;;
54458;SDS011;40368;49.350;8.152;2023-03-15T05:38:29;28;;;70;;
54458;SDS011;40368;49.350;8.152;2023-03-15T05:39:29;29;;;91;;
54458;SDS011;40368;49.350;8.152;2023-03-15T05:40:29;27;;;74;;
54458;SDS011;40368;49.350;8.152;2023-03-15T05:41:29;30;;;81;;
54458;SDS011;40368;49.350;8.152;2023-03-15T05:42:29;27;;;47;;
54458;SDS011;40368;49.350;8.152;2023-03-15T05:43:29;28;;;92;;
54458;SDS011;40368;49.350;8.152;2023-03-15T05:44:29;28;;;60;;
54458;SDS011;40368;49.350;8.152;2023-03-15T05:45:29;28;;;44;;
54458;SDS011;40368;49.350;8.152;2023-03-15T05:46:29;38;;;107;;
54458;SDS011;40368;49.350;8.152;2023-03-15T05:47:29;29;;;106;;
54458;SDS011;40368;49.350;8.152;2023-03-15T05:48:29;30;;;69;;
54458;SDS011;40368;49.350;8.152;2023-03-15T05:49:29;28;;;57;;
54458;SDS011;40368;49.350;8.152;2023-03-15T05:50:29;25;;;60;;
54458;SDS011;40368;49.350;8.152;2023-03-15T05:51:29;27;;;64;;
54458;SDS011;40368;49.350;8.152;2023-03-15T05:52:29;25;;;60;;
54458;SDS011;40368;49.350;8.152;2023-03-15T05:53:29;27;;;58;;
54458;SDS011;40368;49.350;8.152;2023-03-15T05:54:29;28;;;68;;
54458;SDS011;40368;49.350;8.152;2023-03-15T05:55:29;25;;;75;;
54458;SDS011;40368;49.350;8.152;2023-03-15T05:56:29;25;;;66;;
54458;SDS011;40368;49.350;8.152;2023-03-15T05:57:29;19;;;40;;
54458;SDS011;40368;49.350;8.152;2023-03-15T05:58:29;40;;;84;;
54458;SDS011;40368;49.350;8.152;2023-03-15T05:59:29;26;;;65;;
54458;SDS011;40368;49.350;8.152;2023-03-15T06:00:29;39;;;93;;
54458;SDS011;40368;49.350;8.152;2023-03-15T06:01:29;27;;;67;;
54458;SDS011;40368;49.350;8.152;2023-03-15T06:02:29;28;;;67;;
54458;SDS011;40368;49.350;8.152;2023-03-15T06:03:29;28;;;76;;
54458;SDS011;40368;49.350;8.152;2023-03-15T06:04:29;26;;;50;;
54458;SDS011;40368;49.350;8.152;2023-03-15T06:05:29;29;;;69;;
54458;SDS011;40368;49.350;8.152;2023-03-15T06:06:29;29;;;75;;
54458;SDS011;40368;49.350;8.152;2023-03-15T06:07:29;28;;;54;;
54458;SDS011;40368;49.350;8.152;2023-03-15T06:08:29;30;;;86;;
54458;SDS011;40368;49.350;8.152;2023-03-15T06:09:29;28;;;86;;
54458;SDS011;40368;49.350;8.152;2023-03-15T06:10:29;28;;;90;;
54458;SDS011;40368;49.350;8.152;2023-03-15T06:11:29;25;;;61;;
54458;SDS011;40368;49.350;8.152;2023-03-15T06:12:29;31;;;84;;
54458;SDS011;40368;49.350;8.152;2023-03-15T06:13:29;27;;;52;;
54458;SDS011;40368;49.350;8.152;2023-03-15T06:14:29;26;;;60;;
54458;SDS011;40368;49.350;8.152;2023-03-15T06:15:29;28;;;58;;
54458;SDS011;40368;49.350;8.152;2023-03-15T06:16:35;25;;;69;;
54458;SDS011;40368;49.350;8.152;2023-03-15T06:17:29;29;;;112;;
54458;SDS011;40368;49.350;8.152;2023-03-15T06:18:29;24;;;56;;
54458;SDS011;40368;49.350;8.152;2023-03-15T06:19:29;25;;;92;;
54458;SDS011;40368;49.350;8.152;2023-03-15T06:20:29;29;;;91;;
54458;SDS011;40368;49.350;8.152;2023-03-15T06:21:29;29;;;118;;
54458;SDS011;40368;49.350;8.152;2023-03-15T06:22:29;29;;;65;;
54458;SDS011;40368;49.350;8.152;2023-03-15T06:23:29;23;;;59;;
54458;SDS011;40368;49.350;8.152;2023-03-15T06:24:29;27;;;49;;
54458;SDS011;40368;49.350;8.152;2023-03-15T06:25:29;27;;;73;;
54458;SDS011;40368;49.350;8.152;2023-03-15T06:26:29;25;;;90;;
54458;SDS011;40368;49.350;8.152;2023-03-15T06:27:29;34;;;97;;
54458;SDS011;40368;49.350;8.152;2023-03-15T06:28:29;28;;;87;;
54458;SDS011;40368;49.350;8.152;2023-03-15T06:29:29;30;;;73;;